Ana Sayfa
METAR-TAF:

METAR-TAF

Havaalanları :

Smith Field

Siloam Springs, Arkansas, Amerika Birleşik Devletleri

Enlem: 36-12N, Boylam: 094-29W, yükseklik: 300 m

Güncel hava durumu gözlemi

Rapor saat 02:56 UTC de 44 dakika önce yapıldı.
Rüzgar güneydoğudan 7 kt
Sıcaklık 20°C
Nem 73%
Basınç 1014 hPa
Görüş mesafesi: 16.1 km
Açık gökyüzü

METAR: KSLG 180256Z AUTO 14007KT 10SM CLR 20/15 A2995 RMK AO2 SLP132 T02000150 51009

Saat: 22:40 (03:40 UTC)


TAF: eksik

4.000'den fazla havaalanı için hava durumu gözlemleri ve tahminleri (METAR ve TAF raporları).

Kullanılabilir istasyonlar harita üzerinde sarı ve kırmızı noktalarla gösterilir.

İstasyonun adını görmek için fareyi noktanın üzerinde gezdirin.

Sonrasında hava gözlem ve tahminlerini görmek için tıklayın.

Haritayı değiştirmek için: yaklaştırmak için siyah artı işaretli yeşil düğmeye ve uzaklaştırmak için de eksi işaretli düğmeye hızla tıklayın; bitişik haritalar için yeşil okları kullanın.


METAR-TAF: